sensor_id;sensor_type;location;lat;lon;timestamp;P1;durP1;ratioP1;P2;durP2;ratioP2
15271;SDS011;7737;51.578;7.268;2023-04-22T00:02:07;10.15;;;9.18;;
15271;SDS011;7737;51.578;7.268;2023-04-22T00:04:37;10.10;;;9.05;;
15271;SDS011;7737;51.578;7.268;2023-04-22T00:07:03;9.32;;;8.43;;
15271;SDS011;7737;51.578;7.268;2023-04-22T00:09:31;9.00;;;8.20;;
15271;SDS011;7737;51.578;7.268;2023-04-22T00:11:58;10.27;;;8.63;;
15271;SDS011;7737;51.578;7.268;2023-04-22T00:14:26;8.80;;;7.90;;
15271;SDS011;7737;51.578;7.268;2023-04-22T00:16:52;9.27;;;8.00;;
15271;SDS011;7737;51.578;7.268;2023-04-22T00:19:19;8.73;;;7.93;;
15271;SDS011;7737;51.578;7.268;2023-04-22T00:21:46;8.82;;;7.93;;
15271;SDS011;7737;51.578;7.268;2023-04-22T00:24:13;8.60;;;7.80;;
15271;SDS011;7737;51.578;7.268;2023-04-22T00:26:41;8.52;;;7.65;;
15271;SDS011;7737;51.578;7.268;2023-04-22T00:29:07;8.60;;;7.90;;
15271;SDS011;7737;51.578;7.268;2023-04-22T00:31:34;9.95;;;8.80;;
15271;SDS011;7737;51.578;7.268;2023-04-22T00:34:00;10.23;;;9.32;;
15271;SDS011;7737;51.578;7.268;2023-04-22T00:36:27;10.60;;;9.68;;
15271;SDS011;7737;51.578;7.268;2023-04-22T00:38:53;11.88;;;10.45;;
15271;SDS011;7737;51.578;7.268;2023-04-22T00:41:21;10.77;;;9.68;;
15271;SDS011;7737;51.578;7.268;2023-04-22T00:43:49;11.18;;;9.73;;
15271;SDS011;7737;51.578;7.268;2023-04-22T00:46:16;11.73;;;10.52;;
15271;SDS011;7737;51.578;7.268;2023-04-22T00:48:43;12.25;;;11.00;;
15271;SDS011;7737;51.578;7.268;2023-04-22T00:51:11;11.57;;;10.45;;
15271;SDS011;7737;51.578;7.268;2023-04-22T00:53:37;12.20;;;11.05;;
15271;SDS011;7737;51.578;7.268;2023-04-22T00:56:05;11.23;;;10.13;;
15271;SDS011;7737;51.578;7.268;2023-04-22T00:58:32;10.00;;;9.00;;
15271;SDS011;7737;51.578;7.268;2023-04-22T01:01:00;8.80;;;7.90;;
15271;SDS011;7737;51.578;7.268;2023-04-22T01:03:27;8.70;;;7.90;;
15271;SDS011;7737;51.578;7.268;2023-04-22T01:05:55;9.32;;;8.50;;
15271;SDS011;7737;51.578;7.268;2023-04-22T01:08:23;9.80;;;8.80;;
15271;SDS011;7737;51.578;7.268;2023-04-22T01:10:53;13.73;;;11.90;;
15271;SDS011;7737;51.578;7.268;2023-04-22T01:13:21;13.93;;;12.52;;
15271;SDS011;7737;51.578;7.268;2023-04-22T01:15:48;13.00;;;11.63;;
15271;SDS011;7737;51.578;7.268;2023-04-22T01:18:16;14.38;;;11.82;;
15271;SDS011;7737;51.578;7.268;2023-04-22T01:20:43;13.02;;;11.73;;
15271;SDS011;7737;51.578;7.268;2023-04-22T01:23:14;12.23;;;11.02;;
15271;SDS011;7737;51.578;7.268;2023-04-22T01:25:44;12.32;;;11.05;;
15271;SDS011;7737;51.578;7.268;2023-04-22T01:28:11;13.60;;;11.43;;
15271;SDS011;7737;51.578;7.268;2023-04-22T01:30:37;10.48;;;9.40;;
15271;SDS011;7737;51.578;7.268;2023-04-22T01:33:04;10.57;;;9.38;;
15271;SDS011;7737;51.578;7.268;2023-04-22T01:35:31;9.50;;;8.60;;
15271;SDS011;7737;51.578;7.268;2023-04-22T01:38:00;8.95;;;8.15;;
15271;SDS011;7737;51.578;7.268;2023-04-22T01:40:29;8.52;;;7.75;;
15271;SDS011;7737;51.578;7.268;2023-04-22T01:42:56;8.07;;;7.38;;
15271;SDS011;7737;51.578;7.268;2023-04-22T01:45:24;8.02;;;7.32;;
15271;SDS011;7737;51.578;7.268;2023-04-22T01:47:50;7.28;;;6.60;;
15271;SDS011;7737;51.578;7.268;2023-04-22T01:50:17;8.27;;;7.57;;
15271;SDS011;7737;51.578;7.268;2023-04-22T01:52:44;9.82;;;8.93;;
15271;SDS011;7737;51.578;7.268;2023-04-22T01:55:10;9.10;;;8.27;;
15271;SDS011;7737;51.578;7.268;2023-04-22T01:57:38;9.80;;;8.90;;
15271;SDS011;7737;51.578;7.268;2023-04-22T02:00:06;9.27;;;8.48;;
15271;SDS011;7737;51.578;7.268;2023-04-22T02:02:34;9.15;;;8.35;;
15271;SDS011;7737;51.578;7.268;2023-04-22T02:05:00;9.40;;;8.52;;
15271;SDS011;7737;51.578;7.268;2023-04-22T02:07:27;10.18;;;9.18;;
15271;SDS011;7737;51.578;7.268;2023-04-22T02:09:53;11.18;;;10.07;;
15271;SDS011;7737;51.578;7.268;2023-04-22T02:12:20;11.23;;;10.05;;
15271;SDS011;7737;51.578;7.268;2023-04-22T02:14:48;9.93;;;9.05;;
15271;SDS011;7737;51.578;7.268;2023-04-22T02:17:14;9.65;;;8.70;;
15271;SDS011;7737;51.578;7.268;2023-04-22T02:19:41;8.70;;;7.82;;
15271;SDS011;7737;51.578;7.268;2023-04-22T02:22:08;10.45;;;9.55;;
15271;SDS011;7737;51.578;7.268;2023-04-22T02:24:35;11.60;;;10.50;;
15271;SDS011;7737;51.578;7.268;2023-04-22T02:27:01;11.63;;;10.30;;
15271;SDS011;7737;51.578;7.268;2023-04-22T02:29:27;11.30;;;10.20;;
15271;SDS011;7737;51.578;7.268;2023-04-22T02:31:57;12.27;;;11.10;;
15271;SDS011;7737;51.578;7.268;2023-04-22T02:34:24;12.70;;;11.50;;
15271;SDS011;7737;51.578;7.268;2023-04-22T02:36:51;12.90;;;11.57;;
15271;SDS011;7737;51.578;7.268;2023-04-22T02:39:17;13.30;;;12.00;;
15271;SDS011;7737;51.578;7.268;2023-04-22T02:41:43;12.02;;;10.93;;
15271;SDS011;7737;51.578;7.268;2023-04-22T02:44:10;11.93;;;10.02;;
15271;SDS011;7737;51.578;7.268;2023-04-22T02:46:37;10.35;;;9.45;;
15271;SDS011;7737;51.578;7.268;2023-04-22T02:49:04;11.32;;;10.30;;
15271;SDS011;7737;51.578;7.268;2023-04-22T02:51:31;11.15;;;10.15;;
15271;SDS011;7737;51.578;7.268;2023-04-22T02:53:58;12.75;;;11.45;;
15271;SDS011;7737;51.578;7.268;2023-04-22T02:56:25;12.98;;;11.68;;
15271;SDS011;7737;51.578;7.268;2023-04-22T02:58:51;13.32;;;11.38;;
15271;SDS011;7737;51.578;7.268;2023-04-22T03:01:18;11.18;;;10.07;;
15271;SDS011;7737;51.578;7.268;2023-04-22T03:03:44;13.30;;;11.70;;
15271;SDS011;7737;51.578;7.268;2023-04-22T03:06:12;13.45;;;12.05;;
15271;SDS011;7737;51.578;7.268;2023-04-22T03:08:39;13.73;;;11.60;;
15271;SDS011;7737;51.578;7.268;2023-04-22T03:11:05;13.70;;;11.50;;
15271;SDS011;7737;51.578;7.268;2023-04-22T03:13:32;13.68;;;12.27;;
15271;SDS011;7737;51.578;7.268;2023-04-22T03:15:58;15.23;;;13.73;;
15271;SDS011;7737;51.578;7.268;2023-04-22T03:18:25;16.05;;;14.32;;
15271;SDS011;7737;51.578;7.268;2023-04-22T03:20:51;19.10;;;14.70;;
15271;SDS011;7737;51.578;7.268;2023-04-22T03:23:19;17.83;;;15.05;;
15271;SDS011;7737;51.578;7.268;2023-04-22T03:25:46;17.05;;;14.85;;
15271;SDS011;7737;51.578;7.268;2023-04-22T03:28:12;16.70;;;14.57;;
15271;SDS011;7737;51.578;7.268;2023-04-22T03:30:39;15.82;;;14.25;;
15271;SDS011;7737;51.578;7.268;2023-04-22T03:33:05;16.20;;;14.48;;
15271;SDS011;7737;51.578;7.268;2023-04-22T03:35:31;16.85;;;14.98;;
15271;SDS011;7737;51.578;7.268;2023-04-22T03:37:58;17.27;;;15.25;;
15271;SDS011;7737;51.578;7.268;2023-04-22T03:40:26;16.02;;;14.30;;
15271;SDS011;7737;51.578;7.268;2023-04-22T03:42:52;16.70;;;14.85;;
15271;SDS011;7737;51.578;7.268;2023-04-22T03:45:19;17.08;;;15.23;;
15271;SDS011;7737;51.578;7.268;2023-04-22T03:47:45;17.73;;;15.70;;
15271;SDS011;7737;51.578;7.268;2023-04-22T03:50:12;17.35;;;15.00;;
15271;SDS011;7737;51.578;7.268;2023-04-22T03:52:38;18.25;;;16.27;;
15271;SDS011;7737;51.578;7.268;2023-04-22T03:55:05;17.15;;;14.88;;
15271;SDS011;7737;51.578;7.268;2023-04-22T03:57:34;17.60;;;15.70;;
15271;SDS011;7737;51.578;7.268;2023-04-22T04:00:00;17.70;;;15.80;;
15271;SDS011;7737;51.578;7.268;2023-04-22T04:02:27;18.10;;;16.20;;
15271;SDS011;7737;51.578;7.268;2023-04-22T04:04:53;17.15;;;15.27;;
15271;SDS011;7737;51.578;7.268;2023-04-22T04:07:20;17.17;;;15.40;;
15271;SDS011;7737;51.578;7.268;2023-04-22T04:09:46;17.35;;;15.55;;
15271;SDS011;7737;51.578;7.268;2023-04-22T04:12:13;17.88;;;15.48;;
15271;SDS011;7737;51.578;7.268;2023-04-22T04:14:41;18.08;;;15.68;;
15271;SDS011;7737;51.578;7.268;2023-04-22T04:17:07;18.45;;;16.10;;
15271;SDS011;7737;51.578;7.268;2023-04-22T04:19:34;20.10;;;16.88;;
15271;SDS011;7737;51.578;7.268;2023-04-22T04:22:00;19.25;;;16.70;;
15271;SDS011;7737;51.578;7.268;2023-04-22T04:24:27;20.20;;;16.50;;
15271;SDS011;7737;51.578;7.268;2023-04-22T04:26:53;18.15;;;16.33;;
15271;SDS011;7737;51.578;7.268;2023-04-22T04:29:22;19.73;;;16.38;;
15271;SDS011;7737;51.578;7.268;2023-04-22T04:31:50;18.40;;;16.40;;
15271;SDS011;7737;51.578;7.268;2023-04-22T04:34:17;18.65;;;16.05;;
15271;SDS011;7737;51.578;7.268;2023-04-22T04:36:43;18.13;;;16.20;;
15271;SDS011;7737;51.578;7.268;2023-04-22T04:39:10;17.92;;;16.13;;
15271;SDS011;7737;51.578;7.268;2023-04-22T04:41:37;18.50;;;16.33;;
15271;SDS011;7737;51.578;7.268;2023-04-22T04:44:05;16.70;;;15.00;;
15271;SDS011;7737;51.578;7.268;2023-04-22T04:46:31;18.65;;;16.15;;
15271;SDS011;7737;51.578;7.268;2023-04-22T04:49:01;18.52;;;16.58;;
15271;SDS011;7737;51.578;7.268;2023-04-22T04:51:28;18.63;;;16.48;;
15271;SDS011;7737;51.578;7.268;2023-04-22T04:53:56;18.33;;;16.40;;
15271;SDS011;7737;51.578;7.268;2023-04-22T04:56:22;17.63;;;15.05;;
15271;SDS011;7737;51.578;7.268;2023-04-22T04:58:49;16.83;;;15.00;;
15271;SDS011;7737;51.578;7.268;2023-04-22T05:01:15;16.00;;;13.77;;
15271;SDS011;7737;51.578;7.268;2023-04-22T05:03:42;18.77;;;15.55;;
15271;SDS011;7737;51.578;7.268;2023-04-22T05:06:10;17.58;;;15.45;;
15271;SDS011;7737;51.578;7.268;2023-04-22T05:08:36;19.50;;;14.95;;
15271;SDS011;7737;51.578;7.268;2023-04-22T05:11:03;16.63;;;14.85;;
15271;SDS011;7737;51.578;7.268;2023-04-22T05:13:29;16.58;;;14.75;;
15271;SDS011;7737;51.578;7.268;2023-04-22T05:15:56;17.40;;;15.40;;
15271;SDS011;7737;51.578;7.268;2023-04-22T05:18:23;17.27;;;15.27;;
15271;SDS011;7737;51.578;7.268;2023-04-22T05:20:50;16.45;;;14.70;;
15271;SDS011;7737;51.578;7.268;2023-04-22T05:23:18;15.80;;;14.13;;
15271;SDS011;7737;51.578;7.268;2023-04-22T05:25:44;17.83;;;15.52;;
15271;SDS011;7737;51.578;7.268;2023-04-22T05:28:11;16.35;;;14.73;;
15271;SDS011;7737;51.578;7.268;2023-04-22T05:30:37;19.02;;;15.45;;
15271;SDS011;7737;51.578;7.268;2023-04-22T05:33:04;18.08;;;14.40;;
15271;SDS011;7737;51.578;7.268;2023-04-22T05:35:32;16.98;;;15.18;;
15271;SDS011;7737;51.578;7.268;2023-04-22T05:37:59;16.35;;;14.65;;
15271;SDS011;7737;51.578;7.268;2023-04-22T05:40:27;16.00;;;14.30;;
15271;SDS011;7737;51.578;7.268;2023-04-22T05:42:53;17.13;;;14.93;;
15271;SDS011;7737;51.578;7.268;2023-04-22T05:45:20;17.52;;;14.77;;
15271;SDS011;7737;51.578;7.268;2023-04-22T05:47:46;17.25;;;15.05;;
15271;SDS011;7737;51.578;7.268;2023-04-22T05:50:13;15.55;;;13.98;;
15271;SDS011;7737;51.578;7.268;2023-04-22T05:52:39;16.17;;;13.77;;
15271;SDS011;7737;51.578;7.268;2023-04-22T05:55:06;15.40;;;13.88;;
15271;SDS011;7737;51.578;7.268;2023-04-22T05:57:34;14.30;;;12.75;;
15271;SDS011;7737;51.578;7.268;2023-04-22T06:00:01;14.95;;;12.85;;
15271;SDS011;7737;51.578;7.268;2023-04-22T06:02:29;14.90;;;13.32;;
15271;SDS011;7737;51.578;7.268;2023-04-22T06:04:55;14.68;;;13.18;;
15271;SDS011;7737;51.578;7.268;2023-04-22T06:07:22;14.50;;;13.00;;
15271;SDS011;7737;51.578;7.268;2023-04-22T06:09:48;15.38;;;13.77;;
15271;SDS011;7737;51.578;7.268;2023-04-22T06:12:15;15.30;;;13.02;;
15271;SDS011;7737;51.578;7.268;2023-04-22T06:14:43;14.38;;;12.88;;
15271;SDS011;7737;51.578;7.268;2023-04-22T06:17:10;15.10;;;13.60;;
15271;SDS011;7737;51.578;7.268;2023-04-22T06:19:36;14.55;;;13.15;;
15271;SDS011;7737;51.578;7.268;2023-04-22T06:22:03;15.35;;;13.85;;
15271;SDS011;7737;51.578;7.268;2023-04-22T06:24:29;15.77;;;13.45;;
15271;SDS011;7737;51.578;7.268;2023-04-22T06:26:56;14.40;;;12.90;;
15271;SDS011;7737;51.578;7.268;2023-04-22T06:29:23;15.18;;;13.68;;
15271;SDS011;7737;51.578;7.268;2023-04-22T06:31:51;14.73;;;13.23;;
15271;SDS011;7737;51.578;7.268;2023-04-22T06:34:18;13.63;;;12.32;;
15271;SDS011;7737;51.578;7.268;2023-04-22T06:36:45;14.52;;;12.65;;
15271;SDS011;7737;51.578;7.268;2023-04-22T06:39:11;13.10;;;11.80;;
15271;SDS011;7737;51.578;7.268;2023-04-22T06:41:38;13.98;;;12.50;;
15271;SDS011;7737;51.578;7.268;2023-04-22T06:44:05;13.90;;;12.10;;
15271;SDS011;7737;51.578;7.268;2023-04-22T06:46:31;13.13;;;11.75;;
15271;SDS011;7737;51.578;7.268;2023-04-22T06:48:59;13.30;;;12.00;;
15271;SDS011;7737;51.578;7.268;2023-04-22T06:51:25;13.15;;;11.93;;
15271;SDS011;7737;51.578;7.268;2023-04-22T06:53:52;13.85;;;12.48;;
15271;SDS011;7737;51.578;7.268;2023-04-22T06:56:18;12.77;;;11.48;;
15271;SDS011;7737;51.578;7.268;2023-04-22T06:58:45;13.68;;;12.35;;
15271;SDS011;7737;51.578;7.268;2023-04-22T07:01:12;13.15;;;11.85;;
15271;SDS011;7737;51.578;7.268;2023-04-22T07:03:38;13.02;;;11.82;;
15271;SDS011;7737;51.578;7.268;2023-04-22T07:06:06;13.02;;;11.73;;
15271;SDS011;7737;51.578;7.268;2023-04-22T07:08:34;13.45;;;12.05;;
15271;SDS011;7737;51.578;7.268;2023-04-22T07:11:01;12.50;;;11.25;;
15271;SDS011;7737;51.578;7.268;2023-04-22T07:13:27;11.77;;;10.65;;
15271;SDS011;7737;51.578;7.268;2023-04-22T07:15:58;10.88;;;9.10;;
15271;SDS011;7737;51.578;7.268;2023-04-22T07:18:24;10.82;;;9.82;;
15271;SDS011;7737;51.578;7.268;2023-04-22T07:20:51;10.13;;;9.23;;
15271;SDS011;7737;51.578;7.268;2023-04-22T07:23:19;10.10;;;9.20;;
15271;SDS011;7737;51.578;7.268;2023-04-22T07:25:46;9.77;;;8.80;;
15271;SDS011;7737;51.578;7.268;2023-04-22T07:28:13;10.07;;;8.65;;
15271;SDS011;7737;51.578;7.268;2023-04-22T07:30:39;8.52;;;7.80;;
15271;SDS011;7737;51.578;7.268;2023-04-22T07:33:06;7.97;;;7.25;;
15271;SDS011;7737;51.578;7.268;2023-04-22T07:35:32;8.05;;;7.15;;
15271;SDS011;7737;51.578;7.268;2023-04-22T07:37:59;8.38;;;7.57;;
15271;SDS011;7737;51.578;7.268;2023-04-22T07:40:27;8.38;;;7.57;;
15271;SDS011;7737;51.578;7.268;2023-04-22T07:42:53;7.47;;;6.72;;
15271;SDS011;7737;51.578;7.268;2023-04-22T07:45:20;4.68;;;4.28;;
15271;SDS011;7737;51.578;7.268;2023-04-22T07:47:46;4.53;;;3.83;;
15271;SDS011;7737;51.578;7.268;2023-04-22T07:50:13;6.65;;;3.50;;
15271;SDS011;7737;51.578;7.268;2023-04-22T07:52:39;3.63;;;3.00;;
15271;SDS011;7737;51.578;7.268;2023-04-22T07:55:07;2.90;;;2.70;;
15271;SDS011;7737;51.578;7.268;2023-04-22T07:57:35;2.95;;;2.22;;
15271;SDS011;7737;51.578;7.268;2023-04-22T08:00:03;4.68;;;2.42;;
15271;SDS011;7737;51.578;7.268;2023-04-22T08:02:31;2.97;;;2.67;;
15271;SDS011;7737;51.578;7.268;2023-04-22T08:04:58;2.42;;;2.22;;
15271;SDS011;7737;51.578;7.268;2023-04-22T08:07:24;2.70;;;2.05;;
15271;SDS011;7737;51.578;7.268;2023-04-22T08:09:51;2.03;;;1.83;;
15271;SDS011;7737;51.578;7.268;2023-04-22T08:12:19;2.65;;;1.73;;
15271;SDS011;7737;51.578;7.268;2023-04-22T08:14:47;3.40;;;2.90;;
15271;SDS011;7737;51.578;7.268;2023-04-22T08:17:17;4.40;;;2.70;;
15271;SDS011;7737;51.578;7.268;2023-04-22T08:19:45;2.13;;;1.88;;
15271;SDS011;7737;51.578;7.268;2023-04-22T08:22:12;2.50;;;2.30;;
15271;SDS011;7737;51.578;7.268;2023-04-22T08:24:39;1.83;;;1.63;;
15271;SDS011;7737;51.578;7.268;2023-04-22T08:27:05;2.85;;;1.85;;
15271;SDS011;7737;51.578;7.268;2023-04-22T08:29:32;2.53;;;1.83;;
15271;SDS011;7737;51.578;7.268;2023-04-22T08:32:00;2.33;;;1.80;;
15271;SDS011;7737;51.578;7.268;2023-04-22T08:34:28;1.85;;;1.67;;
15271;SDS011;7737;51.578;7.268;2023-04-22T08:36:54;2.08;;;1.80;;
15271;SDS011;7737;51.578;7.268;2023-04-22T08:39:21;2.88;;;1.60;;
15271;SDS011;7737;51.578;7.268;2023-04-22T08:41:47;2.15;;;1.80;;
15271;SDS011;7737;51.578;7.268;2023-04-22T08:44:15;2.80;;;1.60;;
15271;SDS011;7737;51.578;7.268;2023-04-22T08:46:42;3.08;;;1.73;;
15271;SDS011;7737;51.578;7.268;2023-04-22T08:49:12;1.75;;;1.65;;
15271;SDS011;7737;51.578;7.268;2023-04-22T08:51:40;2.40;;;1.60;;
15271;SDS011;7737;51.578;7.268;2023-04-22T08:54:07;2.20;;;1.50;;
15271;SDS011;7737;51.578;7.268;2023-04-22T08:56:34;3.38;;;1.60;;
15271;SDS011;7737;51.578;7.268;2023-04-22T08:59:02;2.30;;;1.50;;
15271;SDS011;7737;51.578;7.268;2023-04-22T09:01:29;1.50;;;1.40;;
15271;SDS011;7737;51.578;7.268;2023-04-22T09:03:57;2.80;;;1.77;;
15271;SDS011;7737;51.578;7.268;2023-04-22T09:06:27;1.65;;;1.40;;
15271;SDS011;7737;51.578;7.268;2023-04-22T09:08:54;2.08;;;1.40;;
15271;SDS011;7737;51.578;7.268;2023-04-22T09:11:23;1.60;;;1.50;;
15271;SDS011;7737;51.578;7.268;2023-04-22T09:13:51;1.73;;;1.40;;
15271;SDS011;7737;51.578;7.268;2023-04-22T09:16:19;1.85;;;1.40;;
15271;SDS011;7737;51.578;7.268;2023-04-22T09:18:46;1.65;;;1.50;;
15271;SDS011;7737;51.578;7.268;2023-04-22T09:21:12;4.50;;;1.80;;
15271;SDS011;7737;51.578;7.268;2023-04-22T09:23:44;1.80;;;1.50;;
15271;SDS011;7737;51.578;7.268;2023-04-22T09:26:13;2.58;;;1.60;;
15271;SDS011;7737;51.578;7.268;2023-04-22T09:28:47;1.80;;;1.40;;
15271;SDS011;7737;51.578;7.268;2023-04-22T09:31:15;1.85;;;1.60;;
15271;SDS011;7737;51.578;7.268;2023-04-22T09:33:45;1.63;;;1.42;;
15271;SDS011;7737;51.578;7.268;2023-04-22T09:36:13;2.70;;;1.58;;
15271;SDS011;7737;51.578;7.268;2023-04-22T09:38:39;1.77;;;1.50;;
15271;SDS011;7737;51.578;7.268;2023-04-22T09:41:08;2.28;;;1.38;;
15271;SDS011;7737;51.578;7.268;2023-04-22T09:43:36;1.85;;;1.50;;
15271;SDS011;7737;51.578;7.268;2023-04-22T09:46:03;2.28;;;1.50;;
15271;SDS011;7737;51.578;7.268;2023-04-22T09:48:30;1.92;;;1.55;;
15271;SDS011;7737;51.578;7.268;2023-04-22T09:50:56;2.22;;;1.55;;
15271;SDS011;7737;51.578;7.268;2023-04-22T09:53:23;2.28;;;1.50;;
15271;SDS011;7737;51.578;7.268;2023-04-22T09:55:52;2.38;;;1.45;;
15271;SDS011;7737;51.578;7.268;2023-04-22T09:58:21;2.00;;;1.52;;
15271;SDS011;7737;51.578;7.268;2023-04-22T10:00:50;1.30;;;1.20;;
15271;SDS011;7737;51.578;7.268;2023-04-22T10:03:18;2.85;;;1.33;;
15271;SDS011;7737;51.578;7.268;2023-04-22T10:05:45;2.70;;;1.48;;
15271;SDS011;7737;51.578;7.268;2023-04-22T10:08:13;2.78;;;1.40;;
15271;SDS011;7737;51.578;7.268;2023-04-22T10:10:41;1.70;;;1.60;;
15271;SDS011;7737;51.578;7.268;2023-04-22T10:13:08;1.60;;;1.33;;
15271;SDS011;7737;51.578;7.268;2023-04-22T10:15:37;3.45;;;1.58;;
15271;SDS011;7737;51.578;7.268;2023-04-22T10:18:06;1.98;;;1.60;;
15271;SDS011;7737;51.578;7.268;2023-04-22T10:20:36;3.00;;;1.58;;
15271;SDS011;7737;51.578;7.268;2023-04-22T10:23:04;2.45;;;1.80;;
15271;SDS011;7737;51.578;7.268;2023-04-22T10:25:31;2.13;;;1.50;;
15271;SDS011;7737;51.578;7.268;2023-04-22T10:28:00;1.65;;;1.50;;
15271;SDS011;7737;51.578;7.268;2023-04-22T10:30:28;1.65;;;1.30;;
15271;SDS011;7737;51.578;7.268;2023-04-22T10:36:07;1.70;;;1.40;;
15271;SDS011;7737;51.578;7.268;2023-04-22T10:38:35;1.85;;;1.60;;
15271;SDS011;7737;51.578;7.268;2023-04-22T10:41:02;1.92;;;1.35;;
15271;SDS011;7737;51.578;7.268;2023-04-22T10:43:41;1.58;;;1.40;;
15271;SDS011;7737;51.578;7.268;2023-04-22T10:49:12;1.85;;;1.33;;
15271;SDS011;7737;51.578;7.268;2023-04-22T10:51:41;2.50;;;1.63;;
15271;SDS011;7737;51.578;7.268;2023-04-22T10:54:14;1.70;;;1.40;;
15271;SDS011;7737;51.578;7.268;2023-04-22T10:57:32;1.58;;;1.40;;
15271;SDS011;7737;51.578;7.268;2023-04-22T11:02:54;1.60;;;1.30;;
15271;SDS011;7737;51.578;7.268;2023-04-22T11:05:33;2.20;;;1.40;;
15271;SDS011;7737;51.578;7.268;2023-04-22T11:08:02;1.95;;;1.55;;
15271;SDS011;7737;51.578;7.268;2023-04-22T11:10:32;1.98;;;1.40;;
15271;SDS011;7737;51.578;7.268;2023-04-22T11:13:01;2.13;;;1.50;;
15271;SDS011;7737;51.578;7.268;2023-04-22T11:15:31;3.30;;;1.40;;
15271;SDS011;7737;51.578;7.268;2023-04-22T11:17:57;3.03;;;1.50;;
15271;SDS011;7737;51.578;7.268;2023-04-22T11:20:24;3.05;;;1.40;;
15271;SDS011;7737;51.578;7.268;2023-04-22T11:22:51;2.03;;;1.55;;
15271;SDS011;7737;51.578;7.268;2023-04-22T11:25:21;2.65;;;1.50;;
15271;SDS011;7737;51.578;7.268;2023-04-22T11:27:49;3.42;;;1.60;;
15271;SDS011;7737;51.578;7.268;2023-04-22T11:30:18;2.63;;;1.50;;
15271;SDS011;7737;51.578;7.268;2023-04-22T11:32:46;1.90;;;1.42;;
15271;SDS011;7737;51.578;7.268;2023-04-22T11:35:14;1.65;;;1.40;;
15271;SDS011;7737;51.578;7.268;2023-04-22T11:37:43;4.18;;;1.55;;
15271;SDS011;7737;51.578;7.268;2023-04-22T11:40:12;2.17;;;1.42;;
15271;SDS011;7737;51.578;7.268;2023-04-22T11:42:40;2.58;;;1.40;;
15271;SDS011;7737;51.578;7.268;2023-04-22T11:45:08;2.78;;;1.45;;
15271;SDS011;7737;51.578;7.268;2023-04-22T11:47:36;4.88;;;1.63;;
15271;SDS011;7737;51.578;7.268;2023-04-22T11:50:03;2.88;;;1.60;;
15271;SDS011;7737;51.578;7.268;2023-04-22T11:52:40;2.95;;;1.75;;
15271;SDS011;7737;51.578;7.268;2023-04-22T11:55:09;4.18;;;1.60;;
15271;SDS011;7737;51.578;7.268;2023-04-22T11:57:37;3.08;;;1.58;;
15271;SDS011;7737;51.578;7.268;2023-04-22T12:00:08;2.72;;;1.58;;
15271;SDS011;7737;51.578;7.268;2023-04-22T12:02:37;3.53;;;1.65;;
15271;SDS011;7737;51.578;7.268;2023-04-22T12:05:04;4.22;;;1.40;;
15271;SDS011;7737;51.578;7.268;2023-04-22T12:07:35;4.07;;;1.83;;
15271;SDS011;7737;51.578;7.268;2023-04-22T12:10:03;2.35;;;1.88;;
15271;SDS011;7737;51.578;7.268;2023-04-22T12:12:31;2.60;;;1.70;;
15271;SDS011;7737;51.578;7.268;2023-04-22T12:15:07;3.75;;;1.77;;
15271;SDS011;7737;51.578;7.268;2023-04-22T12:17:35;1.80;;;1.70;;
15271;SDS011;7737;51.578;7.268;2023-04-22T12:20:02;2.55;;;1.70;;
15271;SDS011;7737;51.578;7.268;2023-04-22T12:22:30;3.78;;;1.60;;
15271;SDS011;7737;51.578;7.268;2023-04-22T12:24:57;3.90;;;1.88;;
15271;SDS011;7737;51.578;7.268;2023-04-22T12:27:24;2.83;;;1.52;;
15271;SDS011;7737;51.578;7.268;2023-04-22T12:29:53;2.22;;;1.77;;
15271;SDS011;7737;51.578;7.268;2023-04-22T12:32:23;2.78;;;1.80;;
15271;SDS011;7737;51.578;7.268;2023-04-22T12:34:51;3.17;;;1.70;;
15271;SDS011;7737;51.578;7.268;2023-04-22T12:37:18;2.42;;;1.98;;
15271;SDS011;7737;51.578;7.268;2023-04-22T12:39:45;2.65;;;1.90;;
15271;SDS011;7737;51.578;7.268;2023-04-22T12:42:11;4.07;;;1.98;;
15271;SDS011;7737;51.578;7.268;2023-04-22T12:44:38;1.65;;;1.55;;
15271;SDS011;7737;51.578;7.268;2023-04-22T12:47:05;2.28;;;1.80;;
15271;SDS011;7737;51.578;7.268;2023-04-22T12:49:37;4.00;;;1.88;;
15271;SDS011;7737;51.578;7.268;2023-04-22T12:52:04;3.20;;;1.90;;
15271;SDS011;7737;51.578;7.268;2023-04-22T12:54:31;1.90;;;1.70;;
15271;SDS011;7737;51.578;7.268;2023-04-22T12:56:58;3.03;;;1.80;;
15271;SDS011;7737;51.578;7.268;2023-04-22T12:59:25;2.70;;;1.90;;
15271;SDS011;7737;51.578;7.268;2023-04-22T13:01:52;2.28;;;1.88;;
15271;SDS011;7737;51.578;7.268;2023-04-22T13:04:19;6.22;;;1.98;;
15271;SDS011;7737;51.578;7.268;2023-04-22T13:06:47;4.97;;;1.85;;
15271;SDS011;7737;51.578;7.268;2023-04-22T13:09:20;3.70;;;2.03;;
15271;SDS011;7737;51.578;7.268;2023-04-22T13:11:47;3.20;;;2.00;;
15271;SDS011;7737;51.578;7.268;2023-04-22T13:14:14;2.03;;;1.75;;
15271;SDS011;7737;51.578;7.268;2023-04-22T13:16:41;3.05;;;2.00;;
15271;SDS011;7737;51.578;7.268;2023-04-22T13:19:07;3.15;;;1.70;;
15271;SDS011;7737;51.578;7.268;2023-04-22T13:21:34;2.80;;;2.03;;
15271;SDS011;7737;51.578;7.268;2023-04-22T13:24:02;2.65;;;1.85;;
15271;SDS011;7737;51.578;7.268;2023-04-22T13:26:29;3.75;;;1.98;;
15271;SDS011;7737;51.578;7.268;2023-04-22T13:28:55;3.55;;;2.15;;
15271;SDS011;7737;51.578;7.268;2023-04-22T13:31:22;2.97;;;1.85;;
15271;SDS011;7737;51.578;7.268;2023-04-22T13:33:48;2.80;;;1.80;;
15271;SDS011;7737;51.578;7.268;2023-04-22T13:36:15;4.00;;;1.95;;
15271;SDS011;7737;51.578;7.268;2023-04-22T13:38:41;2.97;;;2.30;;
15271;SDS011;7737;51.578;7.268;2023-04-22T13:41:09;4.95;;;2.00;;
15271;SDS011;7737;51.578;7.268;2023-04-22T13:43:36;3.40;;;1.90;;
15271;SDS011;7737;51.578;7.268;2023-04-22T13:46:02;4.35;;;2.10;;
15271;SDS011;7737;51.578;7.268;2023-04-22T13:48:29;2.30;;;2.08;;
15271;SDS011;7737;51.578;7.268;2023-04-22T13:50:56;3.78;;;1.90;;
15271;SDS011;7737;51.578;7.268;2023-04-22T13:53:23;2.65;;;1.80;;
15271;SDS011;7737;51.578;7.268;2023-04-22T13:55:49;2.28;;;1.80;;
15271;SDS011;7737;51.578;7.268;2023-04-22T13:58:17;3.55;;;2.17;;
15271;SDS011;7737;51.578;7.268;2023-04-22T14:00:44;4.88;;;2.10;;
15271;SDS011;7737;51.578;7.268;2023-04-22T14:03:10;3.05;;;1.92;;
15271;SDS011;7737;51.578;7.268;2023-04-22T14:05:37;2.30;;;1.88;;
15271;SDS011;7737;51.578;7.268;2023-04-22T14:08:03;2.80;;;1.90;;
15271;SDS011;7737;51.578;7.268;2023-04-22T14:10:30;4.07;;;2.13;;
15271;SDS011;7737;51.578;7.268;2023-04-22T14:12:57;2.72;;;2.00;;
15271;SDS011;7737;51.578;7.268;2023-04-22T14:15:25;4.05;;;2.28;;
15271;SDS011;7737;51.578;7.268;2023-04-22T14:17:51;2.10;;;1.90;;
15271;SDS011;7737;51.578;7.268;2023-04-22T14:20:18;5.03;;;2.10;;
15271;SDS011;7737;51.578;7.268;2023-04-22T14:22:45;4.13;;;2.22;;
15271;SDS011;7737;51.578;7.268;2023-04-22T14:25:11;3.88;;;2.00;;
15271;SDS011;7737;51.578;7.268;2023-04-22T14:27:39;3.90;;;2.00;;
15271;SDS011;7737;51.578;7.268;2023-04-22T14:30:05;2.63;;;2.20;;
15271;SDS011;7737;51.578;7.268;2023-04-22T14:32:34;4.05;;;2.20;;
15271;SDS011;7737;51.578;7.268;2023-04-22T14:35:01;2.28;;;2.08;;
15271;SDS011;7737;51.578;7.268;2023-04-22T14:37:28;4.05;;;2.38;;
15271;SDS011;7737;51.578;7.268;2023-04-22T14:39:55;2.17;;;1.98;;
15271;SDS011;7737;51.578;7.268;2023-04-22T14:42:22;4.13;;;2.10;;
15271;SDS011;7737;51.578;7.268;2023-04-22T14:44:49;3.90;;;2.20;;
15271;SDS011;7737;51.578;7.268;2023-04-22T14:47:16;5.28;;;2.50;;
15271;SDS011;7737;51.578;7.268;2023-04-22T14:49:44;3.28;;;2.10;;
15271;SDS011;7737;51.578;7.268;2023-04-22T14:52:11;2.20;;;1.92;;
15271;SDS011;7737;51.578;7.268;2023-04-22T14:54:37;2.45;;;2.25;;
15271;SDS011;7737;51.578;7.268;2023-04-22T14:57:04;3.72;;;3.05;;
15271;SDS011;7737;51.578;7.268;2023-04-22T14:59:31;6.50;;;3.90;;
15271;SDS011;7737;51.578;7.268;2023-04-22T15:01:57;4.82;;;2.10;;